createdAt,value
2023-03-27T00:04:54.888Z,4.8
2023-03-27T00:19:54.888Z,4.8
2023-03-27T00:34:54.889Z,4.7
2023-03-27T00:49:54.905Z,4.6
2023-03-27T01:04:54.853Z,4.5
2023-03-27T01:19:54.868Z,4.4
2023-03-27T01:35:01.153Z,4.6
2023-03-27T01:49:54.846Z,4.6
2023-03-27T02:04:54.895Z,4.6
2023-03-27T02:19:54.830Z,4.8
2023-03-27T02:34:54.784Z,5
2023-03-27T02:49:54.839Z,5
2023-03-27T03:04:54.760Z,4.8
2023-03-27T03:19:54.795Z,4.7
2023-03-27T03:34:54.746Z,4.7
2023-03-27T03:49:54.802Z,4.7
2023-03-27T04:04:54.730Z,4.9
2023-03-27T04:19:54.754Z,4.9
2023-03-27T04:34:54.717Z,4.9
2023-03-27T04:49:54.738Z,4.8
2023-03-27T05:04:54.688Z,4.8
2023-03-27T05:19:54.703Z,4.9
2023-03-27T05:34:54.686Z,4.9
2023-03-27T05:49:54.668Z,4.9
2023-03-27T06:04:54.661Z,4.9
2023-03-27T06:19:54.654Z,5
2023-03-27T06:34:54.608Z,5
2023-03-27T06:49:54.631Z,5.1
2023-03-27T07:05:04.358Z,5.1
2023-03-27T07:19:54.612Z,5.2
2023-03-27T07:34:54.572Z,5.3
2023-03-27T07:49:54.587Z,5.6
2023-03-27T08:04:54.631Z,6
2023-03-27T08:19:54.586Z,6.2
2023-03-27T08:34:54.523Z,6.2
2023-03-27T08:49:54.553Z,6.8
2023-03-27T09:04:54.491Z,7.7
2023-03-27T09:19:54.519Z,8.4
2023-03-27T09:34:54.458Z,8.9
2023-03-27T09:49:54.478Z,7.8
2023-03-27T10:04:54.436Z,7.3
2023-03-27T10:19:54.460Z,7.4
2023-03-27T10:34:54.451Z,7.3
2023-03-27T10:49:54.439Z,7.3
2023-03-27T11:04:54.383Z,7.4
2023-03-27T11:19:54.415Z,7.6
2023-03-27T11:34:54.364Z,7.7
2023-03-27T11:49:54.381Z,7.7
2023-03-27T12:04:54.326Z,7.4
2023-03-27T12:19:54.352Z,7
2023-03-27T12:34:54.340Z,7.1
2023-03-27T12:49:54.324Z,7.5
2023-03-27T13:04:54.279Z,7.8
2023-03-27T13:19:54.279Z,7.9
2023-03-27T13:34:54.317Z,7.6
2023-03-27T13:49:54.266Z,7.6
2023-03-27T14:04:54.224Z,7.8
2023-03-27T14:19:54.235Z,8
2023-03-27T14:34:54.628Z,8
2023-03-27T14:49:54.195Z,8
2023-03-27T15:04:54.155Z,8
2023-03-27T15:19:54.166Z,8
2023-03-27T15:34:54.129Z,7.8
2023-03-27T15:49:54.120Z,7.6
2023-03-27T16:04:54.393Z,7.5
2023-03-27T16:19:54.092Z,7.5
2023-03-27T16:34:54.055Z,7.5
2023-03-27T16:50:10.350Z,7.5
2023-03-27T17:04:54.145Z,7.4
2023-03-27T17:19:54.064Z,7.3
2023-03-27T17:34:54.022Z,7.2
2023-03-27T17:49:54.101Z,7.2
2023-03-27T18:04:53.988Z,7.3
2023-03-27T18:19:53.979Z,7.1
2023-03-27T18:34:53.937Z,7
2023-03-27T18:49:53.973Z,6.9
2023-03-27T19:04:53.918Z,6.9
2023-03-27T19:19:53.924Z,6.8
2023-03-27T19:34:53.898Z,6.6
2023-03-27T19:49:53.912Z,6.4
2023-03-27T20:04:53.838Z,6.4
2023-03-27T20:19:53.888Z,6.3
2023-03-27T20:34:53.823Z,6.3
2023-03-27T20:49:53.874Z,5.8
2023-03-27T21:04:53.794Z,5.5
2023-03-27T21:19:53.821Z,5.5
2023-03-27T21:34:53.802Z,5.5
2023-03-27T21:49:53.772Z,5.5
2023-03-27T22:04:53.864Z,5.4
2023-03-27T22:19:53.791Z,5.3
2023-03-27T22:34:53.725Z,5.3
2023-03-27T22:49:53.759Z,5.2
2023-03-27T23:04:53.715Z,5.1
2023-03-27T23:19:53.732Z,5.1
2023-03-27T23:34:53.673Z,5.1
2023-03-27T23:49:53.813Z,4.9
